sensor_id;sensor_type;location;lat;lon;timestamp;P1;durP1;ratioP1;P2;durP2;ratioP2
21239;SDS011;10778;48.962;9.018;2022-11-03T00:00:27;9.93;;;4.72;;
21239;SDS011;10778;48.962;9.018;2022-11-03T00:02:53;10.93;;;4.47;;
21239;SDS011;10778;48.962;9.018;2022-11-03T00:05:19;8.50;;;4.03;;
21239;SDS011;10778;48.962;9.018;2022-11-03T00:08:04;11.18;;;4.53;;
21239;SDS011;10778;48.962;9.018;2022-11-03T00:10:30;9.57;;;4.00;;
21239;SDS011;10778;48.962;9.018;2022-11-03T00:12:56;7.00;;;3.65;;
21239;SDS011;10778;48.962;9.018;2022-11-03T00:15:22;8.10;;;4.13;;
21239;SDS011;10778;48.962;9.018;2022-11-03T00:17:48;8.35;;;4.50;;
21239;SDS011;10778;48.962;9.018;2022-11-03T00:20:14;8.32;;;4.47;;
21239;SDS011;10778;48.962;9.018;2022-11-03T00:22:40;10.40;;;4.13;;
21239;SDS011;10778;48.962;9.018;2022-11-03T00:25:06;10.40;;;4.07;;
21239;SDS011;10778;48.962;9.018;2022-11-03T00:27:32;8.63;;;4.03;;
21239;SDS011;10778;48.962;9.018;2022-11-03T00:29:58;11.30;;;4.55;;
21239;SDS011;10778;48.962;9.018;2022-11-03T00:32:24;9.73;;;4.55;;
21239;SDS011;10778;48.962;9.018;2022-11-03T00:34:50;9.88;;;4.32;;
21239;SDS011;10778;48.962;9.018;2022-11-03T00:37:16;10.45;;;4.32;;
21239;SDS011;10778;48.962;9.018;2022-11-03T00:39:42;8.82;;;4.07;;
21239;SDS011;10778;48.962;9.018;2022-11-03T00:42:08;11.10;;;3.70;;
21239;SDS011;10778;48.962;9.018;2022-11-03T00:44:34;8.68;;;4.32;;
21239;SDS011;10778;48.962;9.018;2022-11-03T00:47:00;7.97;;;3.97;;
21239;SDS011;10778;48.962;9.018;2022-11-03T00:49:26;8.00;;;3.95;;
21239;SDS011;10778;48.962;9.018;2022-11-03T00:51:52;10.65;;;4.35;;
21239;SDS011;10778;48.962;9.018;2022-11-03T00:54:18;6.38;;;3.80;;
21239;SDS011;10778;48.962;9.018;2022-11-03T00:56:44;9.20;;;4.25;;
21239;SDS011;10778;48.962;9.018;2022-11-03T00:59:10;10.73;;;4.55;;
21239;SDS011;10778;48.962;9.018;2022-11-03T01:01:37;10.82;;;4.70;;
21239;SDS011;10778;48.962;9.018;2022-11-03T01:04:05;8.05;;;4.68;;
21239;SDS011;10778;48.962;9.018;2022-11-03T01:06:51;10.45;;;5.05;;
21239;SDS011;10778;48.962;9.018;2022-11-03T01:09:20;10.43;;;4.80;;
21239;SDS011;10778;48.962;9.018;2022-11-03T01:12:10;10.38;;;4.90;;
21239;SDS011;10778;48.962;9.018;2022-11-03T01:14:43;14.43;;;7.03;;
21239;SDS011;10778;48.962;9.018;2022-11-03T01:17:12;17.73;;;7.38;;
21239;SDS011;10778;48.962;9.018;2022-11-03T01:19:43;27.80;;;10.57;;
21239;SDS011;10778;48.962;9.018;2022-11-03T01:22:09;30.73;;;15.18;;
21239;SDS011;10778;48.962;9.018;2022-11-03T01:24:36;50.15;;;22.83;;
21239;SDS011;10778;48.962;9.018;2022-11-03T01:27:03;53.80;;;24.08;;
21239;SDS011;10778;48.962;9.018;2022-11-03T01:29:29;50.42;;;25.05;;
21239;SDS011;10778;48.962;9.018;2022-11-03T01:31:55;38.10;;;19.23;;
21239;SDS011;10778;48.962;9.018;2022-11-03T01:34:22;27.58;;;14.50;;
21239;SDS011;10778;48.962;9.018;2022-11-03T01:36:48;17.02;;;7.82;;
21239;SDS011;10778;48.962;9.018;2022-11-03T01:39:15;12.18;;;6.55;;
21239;SDS011;10778;48.962;9.018;2022-11-03T01:41:43;9.80;;;5.25;;
21239;SDS011;10778;48.962;9.018;2022-11-03T01:49:08;9.52;;;4.50;;
21239;SDS011;10778;48.962;9.018;2022-11-03T01:51:39;11.75;;;5.32;;
21239;SDS011;10778;48.962;9.018;2022-11-03T01:54:08;12.27;;;5.68;;
21239;SDS011;10778;48.962;9.018;2022-11-03T01:56:39;12.82;;;6.35;;
21239;SDS011;10778;48.962;9.018;2022-11-03T01:59:08;10.82;;;6.65;;
21239;SDS011;10778;48.962;9.018;2022-11-03T02:01:34;15.75;;;6.15;;
21239;SDS011;10778;48.962;9.018;2022-11-03T02:04:02;9.20;;;5.40;;
21239;SDS011;10778;48.962;9.018;2022-11-03T02:06:35;10.15;;;5.43;;
21239;SDS011;10778;48.962;9.018;2022-11-03T02:09:03;10.88;;;5.15;;
21239;SDS011;10778;48.962;9.018;2022-11-03T02:11:31;8.07;;;5.07;;
21239;SDS011;10778;48.962;9.018;2022-11-03T02:14:16;10.55;;;5.45;;
21239;SDS011;10778;48.962;9.018;2022-11-03T02:16:43;10.48;;;5.68;;
21239;SDS011;10778;48.962;9.018;2022-11-03T02:19:35;13.95;;;7.22;;
21239;SDS011;10778;48.962;9.018;2022-11-03T02:22:33;13.95;;;7.80;;
21239;SDS011;10778;48.962;9.018;2022-11-03T02:28:23;11.65;;;6.53;;
21239;SDS011;10778;48.962;9.018;2022-11-03T02:33:29;11.40;;;5.95;;
21239;SDS011;10778;48.962;9.018;2022-11-03T02:36:12;10.48;;;5.65;;
21239;SDS011;10778;48.962;9.018;2022-11-03T02:38:53;9.30;;;5.53;;
21239;SDS011;10778;48.962;9.018;2022-11-03T02:41:23;11.82;;;5.72;;
21239;SDS011;10778;48.962;9.018;2022-11-03T02:43:51;10.88;;;5.05;;
21239;SDS011;10778;48.962;9.018;2022-11-03T02:46:21;9.95;;;5.70;;
21239;SDS011;10778;48.962;9.018;2022-11-03T02:48:51;12.02;;;5.65;;
21239;SDS011;10778;48.962;9.018;2022-11-03T02:51:17;11.27;;;5.40;;
21239;SDS011;10778;48.962;9.018;2022-11-03T02:53:45;11.77;;;6.00;;
21239;SDS011;10778;48.962;9.018;2022-11-03T02:56:21;9.07;;;5.00;;
21239;SDS011;10778;48.962;9.018;2022-11-03T02:59:00;10.40;;;5.05;;
21239;SDS011;10778;48.962;9.018;2022-11-03T03:04:12;9.65;;;4.90;;
21239;SDS011;10778;48.962;9.018;2022-11-03T03:06:53;8.68;;;4.72;;
21239;SDS011;10778;48.962;9.018;2022-11-03T03:09:24;9.18;;;4.65;;
21239;SDS011;10778;48.962;9.018;2022-11-03T03:11:55;12.05;;;5.18;;
21239;SDS011;10778;48.962;9.018;2022-11-03T03:14:28;7.10;;;4.82;;
21239;SDS011;10778;48.962;9.018;2022-11-03T03:17:00;10.52;;;5.13;;
21239;SDS011;10778;48.962;9.018;2022-11-03T03:22:33;10.88;;;4.70;;
21239;SDS011;10778;48.962;9.018;2022-11-03T03:25:13;8.18;;;4.30;;
21239;SDS011;10778;48.962;9.018;2022-11-03T03:27:47;7.53;;;4.53;;
21239;SDS011;10778;48.962;9.018;2022-11-03T03:30:17;8.70;;;4.93;;
21239;SDS011;10778;48.962;9.018;2022-11-03T03:32:45;8.07;;;4.32;;
21239;SDS011;10778;48.962;9.018;2022-11-03T03:35:15;9.18;;;4.45;;
21239;SDS011;10778;48.962;9.018;2022-11-03T03:37:47;11.02;;;4.82;;
21239;SDS011;10778;48.962;9.018;2022-11-03T03:40:19;8.25;;;5.00;;
21239;SDS011;10778;48.962;9.018;2022-11-03T03:42:49;7.18;;;3.97;;
21239;SDS011;10778;48.962;9.018;2022-11-03T03:45:17;7.78;;;4.45;;
21239;SDS011;10778;48.962;9.018;2022-11-03T03:47:44;7.28;;;4.30;;
21239;SDS011;10778;48.962;9.018;2022-11-03T03:50:11;11.85;;;5.95;;
21239;SDS011;10778;48.962;9.018;2022-11-03T03:52:37;10.50;;;6.60;;
21239;SDS011;10778;48.962;9.018;2022-11-03T03:55:03;14.23;;;6.75;;
21239;SDS011;10778;48.962;9.018;2022-11-03T03:57:37;9.52;;;5.95;;
21239;SDS011;10778;48.962;9.018;2022-11-03T04:00:03;11.73;;;6.07;;
21239;SDS011;10778;48.962;9.018;2022-11-03T04:02:38;10.77;;;6.10;;
21239;SDS011;10778;48.962;9.018;2022-11-03T04:05:04;10.38;;;6.45;;
21239;SDS011;10778;48.962;9.018;2022-11-03T04:07:30;9.07;;;6.13;;
21239;SDS011;10778;48.962;9.018;2022-11-03T04:10:11;10.93;;;5.78;;
21239;SDS011;10778;48.962;9.018;2022-11-03T04:12:41;9.60;;;5.22;;
21239;SDS011;10778;48.962;9.018;2022-11-03T04:15:27;10.15;;;5.18;;
21239;SDS011;10778;48.962;9.018;2022-11-03T04:18:11;7.82;;;4.60;;
21239;SDS011;10778;48.962;9.018;2022-11-03T04:20:56;8.00;;;4.68;;
21239;SDS011;10778;48.962;9.018;2022-11-03T04:23:40;7.63;;;4.80;;
21239;SDS011;10778;48.962;9.018;2022-11-03T04:26:13;8.27;;;4.70;;
21239;SDS011;10778;48.962;9.018;2022-11-03T04:28:42;9.25;;;4.95;;
21239;SDS011;10778;48.962;9.018;2022-11-03T04:31:12;8.07;;;5.18;;
21239;SDS011;10778;48.962;9.018;2022-11-03T04:33:40;8.50;;;5.10;;
21239;SDS011;10778;48.962;9.018;2022-11-03T04:38:46;8.70;;;4.90;;
21239;SDS011;10778;48.962;9.018;2022-11-03T04:43:49;7.25;;;5.22;;
21239;SDS011;10778;48.962;9.018;2022-11-03T04:46:22;10.48;;;5.25;;
21239;SDS011;10778;48.962;9.018;2022-11-03T04:48:54;8.05;;;5.47;;
21239;SDS011;10778;48.962;9.018;2022-11-03T04:51:26;11.68;;;5.03;;
21239;SDS011;10778;48.962;9.018;2022-11-03T04:56:31;10.00;;;5.35;;
21239;SDS011;10778;48.962;9.018;2022-11-03T04:58:58;11.80;;;5.32;;
21239;SDS011;10778;48.962;9.018;2022-11-03T05:01:24;9.13;;;5.25;;
21239;SDS011;10778;48.962;9.018;2022-11-03T05:03:52;9.40;;;5.18;;
21239;SDS011;10778;48.962;9.018;2022-11-03T05:06:23;10.95;;;6.38;;
21239;SDS011;10778;48.962;9.018;2022-11-03T05:08:58;8.85;;;6.07;;
21239;SDS011;10778;48.962;9.018;2022-11-03T05:11:31;10.73;;;5.53;;
21239;SDS011;10778;48.962;9.018;2022-11-03T05:14:00;10.40;;;5.80;;
21239;SDS011;10778;48.962;9.018;2022-11-03T05:16:31;10.70;;;5.35;;
21239;SDS011;10778;48.962;9.018;2022-11-03T05:18:58;9.85;;;5.45;;
21239;SDS011;10778;48.962;9.018;2022-11-03T05:21:25;9.15;;;5.20;;
21239;SDS011;10778;48.962;9.018;2022-11-03T05:23:56;8.00;;;5.22;;
21239;SDS011;10778;48.962;9.018;2022-11-03T05:26:27;11.70;;;5.47;;
21239;SDS011;10778;48.962;9.018;2022-11-03T05:28:56;11.48;;;6.00;;
21239;SDS011;10778;48.962;9.018;2022-11-03T05:31:45;13.65;;;7.28;;
21239;SDS011;10778;48.962;9.018;2022-11-03T05:42:02;11.80;;;5.65;;
21239;SDS011;10778;48.962;9.018;2022-11-03T05:44:55;10.48;;;5.90;;
21239;SDS011;10778;48.962;9.018;2022-11-03T05:47:33;10.57;;;6.47;;
21239;SDS011;10778;48.962;9.018;2022-11-03T05:50:10;11.05;;;6.40;;
21239;SDS011;10778;48.962;9.018;2022-11-03T05:52:41;14.27;;;7.72;;
21239;SDS011;10778;48.962;9.018;2022-11-03T05:55:15;12.73;;;7.70;;
21239;SDS011;10778;48.962;9.018;2022-11-03T05:57:50;10.93;;;6.50;;
21239;SDS011;10778;48.962;9.018;2022-11-03T06:00:23;9.88;;;6.40;;
21239;SDS011;10778;48.962;9.018;2022-11-03T06:02:55;10.68;;;5.97;;
21239;SDS011;10778;48.962;9.018;2022-11-03T06:05:22;9.85;;;5.05;;
21239;SDS011;10778;48.962;9.018;2022-11-03T06:07:50;14.50;;;8.00;;
21239;SDS011;10778;48.962;9.018;2022-11-03T06:10:24;13.30;;;7.93;;
21239;SDS011;10778;48.962;9.018;2022-11-03T06:12:55;11.85;;;6.72;;
21239;SDS011;10778;48.962;9.018;2022-11-03T06:15:31;10.68;;;6.40;;
21239;SDS011;10778;48.962;9.018;2022-11-03T06:18:00;11.75;;;6.28;;
21239;SDS011;10778;48.962;9.018;2022-11-03T06:20:35;8.82;;;5.68;;
21239;SDS011;10778;48.962;9.018;2022-11-03T06:23:01;13.13;;;6.25;;
21239;SDS011;10778;48.962;9.018;2022-11-03T06:28:59;7.53;;;5.35;;
21239;SDS011;10778;48.962;9.018;2022-11-03T06:31:29;13.40;;;6.95;;
21239;SDS011;10778;48.962;9.018;2022-11-03T06:33:58;8.20;;;6.15;;
21239;SDS011;10778;48.962;9.018;2022-11-03T06:36:30;15.50;;;7.03;;
21239;SDS011;10778;48.962;9.018;2022-11-03T06:39:01;11.15;;;6.15;;
21239;SDS011;10778;48.962;9.018;2022-11-03T06:41:41;9.18;;;6.18;;
21239;SDS011;10778;48.962;9.018;2022-11-03T06:44:17;11.40;;;5.75;;
21239;SDS011;10778;48.962;9.018;2022-11-03T06:46:53;9.60;;;5.50;;
21239;SDS011;10778;48.962;9.018;2022-11-03T06:49:28;9.07;;;5.40;;
21239;SDS011;10778;48.962;9.018;2022-11-03T06:51:57;9.35;;;5.45;;
21239;SDS011;10778;48.962;9.018;2022-11-03T06:54:47;6.78;;;4.72;;
21239;SDS011;10778;48.962;9.018;2022-11-03T06:57:15;8.43;;;5.03;;
21239;SDS011;10778;48.962;9.018;2022-11-03T06:59:43;7.97;;;5.22;;
21239;SDS011;10778;48.962;9.018;2022-11-03T07:02:19;12.25;;;8.02;;
21239;SDS011;10778;48.962;9.018;2022-11-03T07:05:18;12.13;;;7.13;;
21239;SDS011;10778;48.962;9.018;2022-11-03T07:07:47;8.60;;;5.72;;
21239;SDS011;10778;48.962;9.018;2022-11-03T07:10:14;8.80;;;5.10;;
21239;SDS011;10778;48.962;9.018;2022-11-03T07:12:41;7.00;;;5.03;;
21239;SDS011;10778;48.962;9.018;2022-11-03T07:15:15;9.40;;;4.82;;
21239;SDS011;10778;48.962;9.018;2022-11-03T07:18:10;14.00;;;10.60;;
21239;SDS011;10778;48.962;9.018;2022-11-03T07:20:43;22.90;;;14.48;;
21239;SDS011;10778;48.962;9.018;2022-11-03T07:23:09;19.60;;;11.55;;
21239;SDS011;10778;48.962;9.018;2022-11-03T07:25:51;12.43;;;5.78;;
21239;SDS011;10778;48.962;9.018;2022-11-03T07:28:23;11.23;;;6.40;;
21239;SDS011;10778;48.962;9.018;2022-11-03T07:31:09;13.50;;;8.45;;
21239;SDS011;10778;48.962;9.018;2022-11-03T07:33:40;11.05;;;7.22;;
21239;SDS011;10778;48.962;9.018;2022-11-03T07:36:07;11.20;;;6.60;;
21239;SDS011;10778;48.962;9.018;2022-11-03T07:38:40;11.82;;;6.03;;
21239;SDS011;10778;48.962;9.018;2022-11-03T07:41:11;11.70;;;5.57;;
21239;SDS011;10778;48.962;9.018;2022-11-03T07:43:43;9.48;;;5.80;;
21239;SDS011;10778;48.962;9.018;2022-11-03T07:46:21;10.70;;;5.63;;
21239;SDS011;10778;48.962;9.018;2022-11-03T07:48:49;11.48;;;5.95;;
21239;SDS011;10778;48.962;9.018;2022-11-03T07:51:19;11.13;;;6.05;;
21239;SDS011;10778;48.962;9.018;2022-11-03T07:54:11;9.80;;;6.03;;
21239;SDS011;10778;48.962;9.018;2022-11-03T07:59:30;12.73;;;6.70;;
21239;SDS011;10778;48.962;9.018;2022-11-03T08:01:57;10.32;;;7.13;;
21239;SDS011;10778;48.962;9.018;2022-11-03T08:04:25;15.20;;;7.20;;
21239;SDS011;10778;48.962;9.018;2022-11-03T08:06:53;12.27;;;6.85;;
21239;SDS011;10778;48.962;9.018;2022-11-03T08:09:19;11.25;;;6.30;;
21239;SDS011;10778;48.962;9.018;2022-11-03T08:11:46;11.77;;;6.60;;
21239;SDS011;10778;48.962;9.018;2022-11-03T08:14:12;10.48;;;6.38;;
21239;SDS011;10778;48.962;9.018;2022-11-03T08:16:38;11.90;;;6.68;;
21239;SDS011;10778;48.962;9.018;2022-11-03T08:19:05;11.45;;;6.60;;
21239;SDS011;10778;48.962;9.018;2022-11-03T08:21:31;12.63;;;6.93;;
21239;SDS011;10778;48.962;9.018;2022-11-03T08:23:57;14.45;;;6.97;;
21239;SDS011;10778;48.962;9.018;2022-11-03T08:26:23;9.95;;;6.35;;
21239;SDS011;10778;48.962;9.018;2022-11-03T08:28:50;13.65;;;7.10;;
21239;SDS011;10778;48.962;9.018;2022-11-03T08:31:17;14.13;;;6.75;;
21239;SDS011;10778;48.962;9.018;2022-11-03T08:33:43;15.77;;;7.13;;
21239;SDS011;10778;48.962;9.018;2022-11-03T08:36:09;10.95;;;6.10;;
21239;SDS011;10778;48.962;9.018;2022-11-03T08:38:36;12.02;;;6.97;;
21239;SDS011;10778;48.962;9.018;2022-11-03T08:41:03;14.23;;;6.82;;
21239;SDS011;10778;48.962;9.018;2022-11-03T08:43:29;12.27;;;6.32;;
21239;SDS011;10778;48.962;9.018;2022-11-03T08:45:55;10.57;;;6.70;;
21239;SDS011;10778;48.962;9.018;2022-11-03T08:48:22;12.80;;;6.70;;
21239;SDS011;10778;48.962;9.018;2022-11-03T08:50:52;11.27;;;6.20;;
21239;SDS011;10778;48.962;9.018;2022-11-03T08:53:22;17.15;;;7.85;;
21239;SDS011;10778;48.962;9.018;2022-11-03T08:55:50;13.93;;;8.52;;
21239;SDS011;10778;48.962;9.018;2022-11-03T08:58:17;12.20;;;7.63;;
21239;SDS011;10778;48.962;9.018;2022-11-03T09:00:43;14.80;;;7.25;;
21239;SDS011;10778;48.962;9.018;2022-11-03T09:03:09;17.00;;;7.40;;
21239;SDS011;10778;48.962;9.018;2022-11-03T09:05:35;13.30;;;7.55;;
21239;SDS011;10778;48.962;9.018;2022-11-03T09:08:01;14.02;;;7.65;;
21239;SDS011;10778;48.962;9.018;2022-11-03T09:10:27;12.52;;;7.05;;
21239;SDS011;10778;48.962;9.018;2022-11-03T09:12:53;10.52;;;6.97;;
21239;SDS011;10778;48.962;9.018;2022-11-03T09:15:20;13.05;;;6.88;;
21239;SDS011;10778;48.962;9.018;2022-11-03T09:17:46;14.05;;;7.05;;
21239;SDS011;10778;48.962;9.018;2022-11-03T09:20:12;10.85;;;7.25;;
21239;SDS011;10778;48.962;9.018;2022-11-03T09:22:38;12.40;;;7.20;;
21239;SDS011;10778;48.962;9.018;2022-11-03T09:25:04;15.95;;;7.70;;
21239;SDS011;10778;48.962;9.018;2022-11-03T09:27:31;13.77;;;7.70;;
21239;SDS011;10778;48.962;9.018;2022-11-03T09:29:57;13.60;;;7.40;;
21239;SDS011;10778;48.962;9.018;2022-11-03T09:32:23;15.05;;;7.10;;
21239;SDS011;10778;48.962;9.018;2022-11-03T09:34:49;14.35;;;7.88;;
21239;SDS011;10778;48.962;9.018;2022-11-03T09:37:15;13.80;;;7.85;;
21239;SDS011;10778;48.962;9.018;2022-11-03T09:39:41;12.32;;;7.32;;
21239;SDS011;10778;48.962;9.018;2022-11-03T09:42:09;12.00;;;7.63;;
21239;SDS011;10778;48.962;9.018;2022-11-03T09:44:37;18.83;;;11.27;;
21239;SDS011;10778;48.962;9.018;2022-11-03T09:47:03;20.45;;;11.88;;
21239;SDS011;10778;48.962;9.018;2022-11-03T09:49:31;46.15;;;24.10;;
21239;SDS011;10778;48.962;9.018;2022-11-03T09:51:58;24.63;;;16.38;;
21239;SDS011;10778;48.962;9.018;2022-11-03T09:54:26;35.58;;;18.80;;
21239;SDS011;10778;48.962;9.018;2022-11-03T09:56:55;22.23;;;13.77;;
21239;SDS011;10778;48.962;9.018;2022-11-03T09:59:30;18.58;;;12.43;;
21239;SDS011;10778;48.962;9.018;2022-11-03T10:01:56;33.95;;;22.08;;
21239;SDS011;10778;48.962;9.018;2022-11-03T10:04:24;21.88;;;12.23;;
21239;SDS011;10778;48.962;9.018;2022-11-03T10:06:55;16.58;;;8.95;;
21239;SDS011;10778;48.962;9.018;2022-11-03T10:09:23;17.92;;;8.48;;
21239;SDS011;10778;48.962;9.018;2022-11-03T10:11:51;15.75;;;7.28;;
21239;SDS011;10778;48.962;9.018;2022-11-03T10:14:19;14.65;;;8.20;;
21239;SDS011;10778;48.962;9.018;2022-11-03T10:16:52;13.15;;;6.60;;
21239;SDS011;10778;48.962;9.018;2022-11-03T10:19:22;14.15;;;7.22;;
21239;SDS011;10778;48.962;9.018;2022-11-03T10:21:48;14.05;;;6.55;;
21239;SDS011;10778;48.962;9.018;2022-11-03T10:24:15;11.75;;;6.32;;
21239;SDS011;10778;48.962;9.018;2022-11-03T10:26:49;17.98;;;7.70;;
21239;SDS011;10778;48.962;9.018;2022-11-03T10:29:18;14.90;;;7.72;;
21239;SDS011;10778;48.962;9.018;2022-11-03T10:31:50;17.10;;;7.90;;
21239;SDS011;10778;48.962;9.018;2022-11-03T10:34:36;15.38;;;7.30;;
21239;SDS011;10778;48.962;9.018;2022-11-03T10:39:50;13.60;;;6.75;;
21239;SDS011;10778;48.962;9.018;2022-11-03T10:44:53;12.98;;;6.97;;
21239;SDS011;10778;48.962;9.018;2022-11-03T10:47:33;11.00;;;6.60;;
21239;SDS011;10778;48.962;9.018;2022-11-03T10:50:04;13.13;;;6.78;;
21239;SDS011;10778;48.962;9.018;2022-11-03T10:52:45;14.57;;;6.53;;
21239;SDS011;10778;48.962;9.018;2022-11-03T10:55:11;10.60;;;6.35;;
21239;SDS011;10778;48.962;9.018;2022-11-03T10:57:37;12.13;;;6.38;;
21239;SDS011;10778;48.962;9.018;2022-11-03T11:00:03;16.60;;;6.18;;
21239;SDS011;10778;48.962;9.018;2022-11-03T11:02:30;14.18;;;6.60;;
21239;SDS011;10778;48.962;9.018;2022-11-03T11:04:59;13.77;;;6.70;;
21239;SDS011;10778;48.962;9.018;2022-11-03T11:07:32;10.15;;;6.07;;
21239;SDS011;10778;48.962;9.018;2022-11-03T11:10:34;12.07;;;5.88;;
21239;SDS011;10778;48.962;9.018;2022-11-03T11:15:44;13.82;;;6.53;;
21239;SDS011;10778;48.962;9.018;2022-11-03T11:18:10;14.23;;;6.32;;
21239;SDS011;10778;48.962;9.018;2022-11-03T11:20:57;13.55;;;6.78;;
21239;SDS011;10778;48.962;9.018;2022-11-03T11:23:47;12.18;;;6.55;;
21239;SDS011;10778;48.962;9.018;2022-11-03T11:31:34;14.68;;;6.90;;
21239;SDS011;10778;48.962;9.018;2022-11-03T11:36:43;10.30;;;6.00;;
21239;SDS011;10778;48.962;9.018;2022-11-03T11:52:44;15.23;;;6.10;;
21239;SDS011;10778;48.962;9.018;2022-11-03T11:57:51;11.93;;;5.30;;
21239;SDS011;10778;48.962;9.018;2022-11-03T12:00:36;11.02;;;5.20;;
21239;SDS011;10778;48.962;9.018;2022-11-03T12:03:03;10.70;;;5.22;;
21239;SDS011;10778;48.962;9.018;2022-11-03T12:05:34;9.52;;;5.05;;
21239;SDS011;10778;48.962;9.018;2022-11-03T12:08:00;12.38;;;5.35;;
21239;SDS011;10778;48.962;9.018;2022-11-03T12:10:28;11.18;;;5.65;;
21239;SDS011;10778;48.962;9.018;2022-11-03T12:12:56;16.83;;;6.30;;
21239;SDS011;10778;48.962;9.018;2022-11-03T12:18:31;11.43;;;5.60;;
21239;SDS011;10778;48.962;9.018;2022-11-03T12:21:08;10.40;;;5.80;;
21239;SDS011;10778;48.962;9.018;2022-11-03T12:23:42;10.48;;;5.22;;
21239;SDS011;10778;48.962;9.018;2022-11-03T12:26:17;13.20;;;5.68;;
21239;SDS011;10778;48.962;9.018;2022-11-03T12:29:06;10.32;;;5.38;;
21239;SDS011;10778;48.962;9.018;2022-11-03T12:31:33;11.27;;;5.10;;
21239;SDS011;10778;48.962;9.018;2022-11-03T12:33:59;10.50;;;5.10;;
21239;SDS011;10778;48.962;9.018;2022-11-03T12:36:25;11.18;;;4.80;;
21239;SDS011;10778;48.962;9.018;2022-11-03T12:38:50;13.25;;;4.60;;
21239;SDS011;10778;48.962;9.018;2022-11-03T12:41:17;11.13;;;4.57;;
21239;SDS011;10778;48.962;9.018;2022-11-03T12:43:47;7.80;;;3.88;;
21239;SDS011;10778;48.962;9.018;2022-11-03T12:46:14;8.10;;;3.60;;
21239;SDS011;10778;48.962;9.018;2022-11-03T12:48:41;10.15;;;3.85;;
21239;SDS011;10778;48.962;9.018;2022-11-03T12:51:10;11.55;;;3.97;;
21239;SDS011;10778;48.962;9.018;2022-11-03T12:53:37;8.50;;;3.55;;
21239;SDS011;10778;48.962;9.018;2022-11-03T12:56:04;10.95;;;3.95;;
21239;SDS011;10778;48.962;9.018;2022-11-03T12:58:30;9.63;;;4.10;;
21239;SDS011;10778;48.962;9.018;2022-11-03T13:00:56;10.48;;;4.82;;
21239;SDS011;10778;48.962;9.018;2022-11-03T13:03:23;11.00;;;5.60;;
21239;SDS011;10778;48.962;9.018;2022-11-03T13:05:49;11.68;;;6.45;;
21239;SDS011;10778;48.962;9.018;2022-11-03T13:08:15;9.80;;;6.03;;
21239;SDS011;10778;48.962;9.018;2022-11-03T13:10:41;12.18;;;5.05;;
21239;SDS011;10778;48.962;9.018;2022-11-03T13:13:07;12.63;;;4.80;;
21239;SDS011;10778;48.962;9.018;2022-11-03T13:15:33;7.45;;;3.83;;
21239;SDS011;10778;48.962;9.018;2022-11-03T13:17:59;8.20;;;4.50;;
21239;SDS011;10778;48.962;9.018;2022-11-03T13:20:25;7.85;;;4.30;;
21239;SDS011;10778;48.962;9.018;2022-11-03T13:22:52;10.05;;;4.47;;
21239;SDS011;10778;48.962;9.018;2022-11-03T13:25:18;9.02;;;4.50;;
21239;SDS011;10778;48.962;9.018;2022-11-03T13:27:44;8.40;;;4.10;;
21239;SDS011;10778;48.962;9.018;2022-11-03T13:30:10;8.98;;;3.83;;
21239;SDS011;10778;48.962;9.018;2022-11-03T13:32:37;12.50;;;5.07;;
21239;SDS011;10778;48.962;9.018;2022-11-03T13:35:03;9.65;;;5.00;;
21239;SDS011;10778;48.962;9.018;2022-11-03T13:37:29;7.40;;;4.47;;
21239;SDS011;10778;48.962;9.018;2022-11-03T13:39:55;7.07;;;4.05;;
21239;SDS011;10778;48.962;9.018;2022-11-03T13:42:21;10.88;;;5.00;;
21239;SDS011;10778;48.962;9.018;2022-11-03T13:44:47;9.75;;;4.82;;
21239;SDS011;10778;48.962;9.018;2022-11-03T13:47:13;13.13;;;5.78;;
21239;SDS011;10778;48.962;9.018;2022-11-03T13:49:39;13.07;;;6.10;;
21239;SDS011;10778;48.962;9.018;2022-11-03T13:52:05;9.27;;;5.28;;
21239;SDS011;10778;48.962;9.018;2022-11-03T13:54:31;10.15;;;5.07;;
21239;SDS011;10778;48.962;9.018;2022-11-03T13:56:58;8.98;;;4.70;;
21239;SDS011;10778;48.962;9.018;2022-11-03T13:59:24;11.05;;;4.32;;
21239;SDS011;10778;48.962;9.018;2022-11-03T14:01:50;10.05;;;4.70;;
21239;SDS011;10778;48.962;9.018;2022-11-03T14:04:16;9.57;;;4.65;;
21239;SDS011;10778;48.962;9.018;2022-11-03T14:06:42;8.88;;;5.07;;
21239;SDS011;10778;48.962;9.018;2022-11-03T14:09:08;11.13;;;8.30;;
21239;SDS011;10778;48.962;9.018;2022-11-03T14:11:34;28.13;;;20.50;;
21239;SDS011;10778;48.962;9.018;2022-11-03T14:14:19;15.05;;;7.43;;
21239;SDS011;10778;48.962;9.018;2022-11-03T14:16:45;12.07;;;7.50;;
21239;SDS011;10778;48.962;9.018;2022-11-03T14:19:11;16.70;;;7.65;;
21239;SDS011;10778;48.962;9.018;2022-11-03T14:21:37;13.20;;;9.10;;
21239;SDS011;10778;48.962;9.018;2022-11-03T14:24:07;17.40;;;11.15;;
21239;SDS011;10778;48.962;9.018;2022-11-03T14:26:33;17.33;;;10.63;;
21239;SDS011;10778;48.962;9.018;2022-11-03T14:28:59;17.70;;;12.68;;
21239;SDS011;10778;48.962;9.018;2022-11-03T14:31:25;18.52;;;10.50;;
21239;SDS011;10778;48.962;9.018;2022-11-03T14:33:51;17.30;;;9.63;;
21239;SDS011;10778;48.962;9.018;2022-11-03T14:36:17;10.57;;;7.20;;
21239;SDS011;10778;48.962;9.018;2022-11-03T14:38:43;16.98;;;9.70;;
21239;SDS011;10778;48.962;9.018;2022-11-03T14:41:09;12.60;;;8.00;;
21239;SDS011;10778;48.962;9.018;2022-11-03T14:43:54;11.75;;;6.55;;
21239;SDS011;10778;48.962;9.018;2022-11-03T14:46:20;10.85;;;6.30;;
21239;SDS011;10778;48.962;9.018;2022-11-03T14:48:46;9.07;;;4.85;;
21239;SDS011;10778;48.962;9.018;2022-11-03T14:51:12;7.63;;;4.97;;
21239;SDS011;10778;48.962;9.018;2022-11-03T14:53:38;8.32;;;4.93;;
21239;SDS011;10778;48.962;9.018;2022-11-03T14:56:04;10.10;;;4.70;;
21239;SDS011;10778;48.962;9.018;2022-11-03T14:58:30;11.00;;;4.80;;
21239;SDS011;10778;48.962;9.018;2022-11-03T15:00:56;10.77;;;4.72;;
21239;SDS011;10778;48.962;9.018;2022-11-03T15:03:22;8.63;;;5.53;;
21239;SDS011;10778;48.962;9.018;2022-11-03T15:05:48;10.35;;;6.28;;
21239;SDS011;10778;48.962;9.018;2022-11-03T15:08:16;10.07;;;6.30;;
21239;SDS011;10778;48.962;9.018;2022-11-03T15:10:42;14.05;;;7.03;;
21239;SDS011;10778;48.962;9.018;2022-11-03T15:13:09;11.50;;;6.38;;
21239;SDS011;10778;48.962;9.018;2022-11-03T15:15:35;10.50;;;6.07;;
21239;SDS011;10778;48.962;9.018;2022-11-03T15:18:01;11.27;;;5.97;;
21239;SDS011;10778;48.962;9.018;2022-11-03T15:20:28;8.55;;;5.57;;
21239;SDS011;10778;48.962;9.018;2022-11-03T15:22:54;10.00;;;6.10;;
21239;SDS011;10778;48.962;9.018;2022-11-03T15:25:21;10.75;;;5.53;;
21239;SDS011;10778;48.962;9.018;2022-11-03T15:27:47;8.30;;;5.18;;
21239;SDS011;10778;48.962;9.018;2022-11-03T15:30:13;8.60;;;5.93;;
21239;SDS011;10778;48.962;9.018;2022-11-03T15:32:39;12.93;;;6.55;;
21239;SDS011;10778;48.962;9.018;2022-11-03T15:35:05;14.63;;;7.35;;
21239;SDS011;10778;48.962;9.018;2022-11-03T15:37:32;12.40;;;6.68;;
21239;SDS011;10778;48.962;9.018;2022-11-03T15:39:57;11.93;;;5.90;;
21239;SDS011;10778;48.962;9.018;2022-11-03T15:42:23;8.48;;;5.35;;
21239;SDS011;10778;48.962;9.018;2022-11-03T15:44:49;10.20;;;5.05;;
21239;SDS011;10778;48.962;9.018;2022-11-03T15:47:16;8.05;;;5.07;;
21239;SDS011;10778;48.962;9.018;2022-11-03T15:49:42;10.65;;;5.25;;
21239;SDS011;10778;48.962;9.018;2022-11-03T15:52:08;11.18;;;5.55;;
21239;SDS011;10778;48.962;9.018;2022-11-03T15:54:34;10.75;;;5.47;;
21239;SDS011;10778;48.962;9.018;2022-11-03T15:57:00;14.10;;;6.18;;
21239;SDS011;10778;48.962;9.018;2022-11-03T15:59:26;15.77;;;6.60;;
21239;SDS011;10778;48.962;9.018;2022-11-03T16:01:52;10.27;;;5.65;;
21239;SDS011;10778;48.962;9.018;2022-11-03T16:04:18;12.60;;;5.97;;
21239;SDS011;10778;48.962;9.018;2022-11-03T16:06:44;11.57;;;5.07;;